sensor_id;sensor_type;location;lat;lon;timestamp;P1;durP1;ratioP1;P2;durP2;ratioP2
53694;SDS011;39588;51.124;7.190;2023-07-29T00:02:06;0.93;;;0.93;;
53694;SDS011;39588;51.124;7.190;2023-07-29T00:04:31;1.10;;;1.00;;
53694;SDS011;39588;51.124;7.190;2023-07-29T00:06:57;0.93;;;0.93;;
53694;SDS011;39588;51.124;7.190;2023-07-29T00:09:23;1.00;;;1.00;;
53694;SDS011;39588;51.124;7.190;2023-07-29T00:11:48;0.77;;;0.77;;
53694;SDS011;39588;51.124;7.190;2023-07-29T00:14:14;1.33;;;1.20;;
53694;SDS011;39588;51.124;7.190;2023-07-29T00:16:40;0.90;;;0.90;;
53694;SDS011;39588;51.124;7.190;2023-07-29T00:19:07;1.17;;;1.00;;
53694;SDS011;39588;51.124;7.190;2023-07-29T00:21:33;0.93;;;0.90;;
53694;SDS011;39588;51.124;7.190;2023-07-29T00:23:59;0.90;;;0.90;;
53694;SDS011;39588;51.124;7.190;2023-07-29T00:26:26;1.13;;;1.13;;
53694;SDS011;39588;51.124;7.190;2023-07-29T00:28:54;0.80;;;0.80;;
53694;SDS011;39588;51.124;7.190;2023-07-29T00:31:20;0.97;;;0.97;;
53694;SDS011;39588;51.124;7.190;2023-07-29T00:33:46;1.03;;;0.93;;
53694;SDS011;39588;51.124;7.190;2023-07-29T00:36:12;10.90;;;1.30;;
53694;SDS011;39588;51.124;7.190;2023-07-29T00:38:37;1.20;;;1.10;;
53694;SDS011;39588;51.124;7.190;2023-07-29T00:41:03;0.80;;;0.80;;
53694;SDS011;39588;51.124;7.190;2023-07-29T00:43:29;2.30;;;1.10;;
53694;SDS011;39588;51.124;7.190;2023-07-29T00:45:56;1.13;;;1.13;;
53694;SDS011;39588;51.124;7.190;2023-07-29T00:48:22;1.03;;;1.03;;
53694;SDS011;39588;51.124;7.190;2023-07-29T00:50:49;0.80;;;0.80;;
53694;SDS011;39588;51.124;7.190;2023-07-29T00:53:16;1.03;;;1.03;;
53694;SDS011;39588;51.124;7.190;2023-07-29T00:55:42;1.03;;;1.03;;
53694;SDS011;39588;51.124;7.190;2023-07-29T00:58:08;1.30;;;1.20;;
53694;SDS011;39588;51.124;7.190;2023-07-29T01:00:34;1.60;;;1.50;;
53694;SDS011;39588;51.124;7.190;2023-07-29T01:02:59;0.90;;;0.90;;
53694;SDS011;39588;51.124;7.190;2023-07-29T01:05:27;1.83;;;1.30;;
53694;SDS011;39588;51.124;7.190;2023-07-29T01:13:37;0.80;;;0.80;;
53694;SDS011;39588;51.124;7.190;2023-07-29T01:16:11;1.43;;;1.40;;
53694;SDS011;39588;51.124;7.190;2023-07-29T01:18:48;1.30;;;1.23;;
53694;SDS011;39588;51.124;7.190;2023-07-29T01:21:17;1.20;;;1.10;;
53694;SDS011;39588;51.124;7.190;2023-07-29T01:23:44;1.00;;;1.00;;
53694;SDS011;39588;51.124;7.190;2023-07-29T01:26:09;1.03;;;1.03;;
53694;SDS011;39588;51.124;7.190;2023-07-29T01:28:35;1.20;;;1.20;;
53694;SDS011;39588;51.124;7.190;2023-07-29T01:31:02;2.10;;;1.20;;
53694;SDS011;39588;51.124;7.190;2023-07-29T01:33:56;1.43;;;1.33;;
53694;SDS011;39588;51.124;7.190;2023-07-29T01:36:33;1.30;;;1.30;;
53694;SDS011;39588;51.124;7.190;2023-07-29T01:39:04;2.00;;;1.40;;
53694;SDS011;39588;51.124;7.190;2023-07-29T01:41:30;1.30;;;1.20;;
53694;SDS011;39588;51.124;7.190;2023-07-29T01:43:56;1.37;;;1.37;;
53694;SDS011;39588;51.124;7.190;2023-07-29T01:46:22;1.33;;;1.23;;
53694;SDS011;39588;51.124;7.190;2023-07-29T01:48:48;2.07;;;1.67;;
53694;SDS011;39588;51.124;7.190;2023-07-29T01:51:14;1.10;;;1.10;;
53694;SDS011;39588;51.124;7.190;2023-07-29T01:53:39;2.17;;;1.33;;
53694;SDS011;39588;51.124;7.190;2023-07-29T01:56:05;1.53;;;1.43;;
53694;SDS011;39588;51.124;7.190;2023-07-29T01:58:31;4.33;;;1.53;;
53694;SDS011;39588;51.124;7.190;2023-07-29T02:00:56;1.23;;;1.13;;
53694;SDS011;39588;51.124;7.190;2023-07-29T02:03:22;1.30;;;1.13;;
53694;SDS011;39588;51.124;7.190;2023-07-29T02:05:48;1.20;;;1.20;;
53694;SDS011;39588;51.124;7.190;2023-07-29T02:08:14;1.30;;;1.27;;
53694;SDS011;39588;51.124;7.190;2023-07-29T02:10:40;1.83;;;1.73;;
53694;SDS011;39588;51.124;7.190;2023-07-29T02:13:08;3.70;;;1.63;;
53694;SDS011;39588;51.124;7.190;2023-07-29T02:15:33;2.07;;;1.20;;
53694;SDS011;39588;51.124;7.190;2023-07-29T02:17:59;1.70;;;1.60;;
53694;SDS011;39588;51.124;7.190;2023-07-29T02:20:26;1.73;;;1.63;;
53694;SDS011;39588;51.124;7.190;2023-07-29T02:22:51;1.60;;;1.50;;
53694;SDS011;39588;51.124;7.190;2023-07-29T02:25:17;1.60;;;1.50;;
53694;SDS011;39588;51.124;7.190;2023-07-29T02:27:43;1.40;;;1.40;;
53694;SDS011;39588;51.124;7.190;2023-07-29T02:30:09;1.00;;;1.00;;
53694;SDS011;39588;51.124;7.190;2023-07-29T02:32:35;6.73;;;1.70;;
53694;SDS011;39588;51.124;7.190;2023-07-29T02:35:01;1.47;;;1.20;;
53694;SDS011;39588;51.124;7.190;2023-07-29T02:37:27;2.70;;;1.53;;
53694;SDS011;39588;51.124;7.190;2023-07-29T02:39:53;1.90;;;1.47;;
53694;SDS011;39588;51.124;7.190;2023-07-29T02:42:19;1.70;;;1.60;;
53694;SDS011;39588;51.124;7.190;2023-07-29T02:44:46;6.03;;;1.70;;
53694;SDS011;39588;51.124;7.190;2023-07-29T02:47:12;1.63;;;1.50;;
53694;SDS011;39588;51.124;7.190;2023-07-29T02:49:37;1.50;;;1.40;;
53694;SDS011;39588;51.124;7.190;2023-07-29T02:52:03;1.83;;;1.17;;
53694;SDS011;39588;51.124;7.190;2023-07-29T02:54:29;1.23;;;1.20;;
53694;SDS011;39588;51.124;7.190;2023-07-29T02:56:56;1.30;;;1.30;;
53694;SDS011;39588;51.124;7.190;2023-07-29T02:59:21;1.47;;;1.40;;
53694;SDS011;39588;51.124;7.190;2023-07-29T03:01:47;1.70;;;1.60;;
53694;SDS011;39588;51.124;7.190;2023-07-29T03:04:13;1.90;;;1.80;;
53694;SDS011;39588;51.124;7.190;2023-07-29T03:06:39;1.73;;;1.63;;
53694;SDS011;39588;51.124;7.190;2023-07-29T03:09:04;2.50;;;2.30;;
53694;SDS011;39588;51.124;7.190;2023-07-29T03:11:30;1.93;;;1.83;;
53694;SDS011;39588;51.124;7.190;2023-07-29T03:13:56;2.70;;;2.50;;
53694;SDS011;39588;51.124;7.190;2023-07-29T03:16:22;4.03;;;2.40;;
53694;SDS011;39588;51.124;7.190;2023-07-29T03:18:48;3.57;;;3.00;;
53694;SDS011;39588;51.124;7.190;2023-07-29T03:21:14;3.50;;;3.20;;
53694;SDS011;39588;51.124;7.190;2023-07-29T03:23:40;3.20;;;2.90;;
53694;SDS011;39588;51.124;7.190;2023-07-29T03:26:06;3.03;;;2.73;;
53694;SDS011;39588;51.124;7.190;2023-07-29T03:28:36;4.00;;;2.93;;
53694;SDS011;39588;51.124;7.190;2023-07-29T03:31:05;3.57;;;3.20;;
53694;SDS011;39588;51.124;7.190;2023-07-29T03:33:31;3.27;;;2.97;;
53694;SDS011;39588;51.124;7.190;2023-07-29T03:35:57;3.27;;;3.00;;
53694;SDS011;39588;51.124;7.190;2023-07-29T03:38:22;6.63;;;3.47;;
53694;SDS011;39588;51.124;7.190;2023-07-29T03:40:50;7.30;;;4.07;;
53694;SDS011;39588;51.124;7.190;2023-07-29T03:43:16;5.77;;;4.23;;
53694;SDS011;39588;51.124;7.190;2023-07-29T03:45:41;6.83;;;5.73;;
53694;SDS011;39588;51.124;7.190;2023-07-29T03:48:07;11.97;;;5.50;;
53694;SDS011;39588;51.124;7.190;2023-07-29T03:50:34;30.23;;;6.67;;
53694;SDS011;39588;51.124;7.190;2023-07-29T03:53:01;9.10;;;4.93;;
53694;SDS011;39588;51.124;7.190;2023-07-29T03:55:27;6.63;;;4.90;;
53694;SDS011;39588;51.124;7.190;2023-07-29T03:57:55;8.33;;;5.13;;
53694;SDS011;39588;51.124;7.190;2023-07-29T04:00:21;6.90;;;4.83;;
53694;SDS011;39588;51.124;7.190;2023-07-29T04:02:47;6.50;;;4.87;;
53694;SDS011;39588;51.124;7.190;2023-07-29T04:05:12;7.17;;;5.37;;
53694;SDS011;39588;51.124;7.190;2023-07-29T04:07:38;8.13;;;5.03;;
53694;SDS011;39588;51.124;7.190;2023-07-29T04:10:04;9.83;;;5.43;;
53694;SDS011;39588;51.124;7.190;2023-07-29T04:12:31;6.73;;;5.23;;
53694;SDS011;39588;51.124;7.190;2023-07-29T04:14:56;6.33;;;5.03;;
53694;SDS011;39588;51.124;7.190;2023-07-29T04:17:22;6.87;;;5.23;;
53694;SDS011;39588;51.124;7.190;2023-07-29T04:19:48;10.40;;;5.70;;
53694;SDS011;39588;51.124;7.190;2023-07-29T04:22:15;8.20;;;5.33;;
53694;SDS011;39588;51.124;7.190;2023-07-29T04:24:41;7.70;;;5.23;;
53694;SDS011;39588;51.124;7.190;2023-07-29T04:27:07;13.57;;;6.10;;
53694;SDS011;39588;51.124;7.190;2023-07-29T04:29:33;20.43;;;5.53;;
53694;SDS011;39588;51.124;7.190;2023-07-29T04:32:00;28.93;;;4.83;;
53694;SDS011;39588;51.124;7.190;2023-07-29T04:34:26;13.10;;;5.60;;
53694;SDS011;39588;51.124;7.190;2023-07-29T04:36:52;7.53;;;5.13;;
53694;SDS011;39588;51.124;7.190;2023-07-29T04:39:18;7.17;;;5.03;;
53694;SDS011;39588;51.124;7.190;2023-07-29T04:41:44;25.43;;;5.90;;
53694;SDS011;39588;51.124;7.190;2023-07-29T04:44:09;11.03;;;5.03;;
53694;SDS011;39588;51.124;7.190;2023-07-29T04:46:35;8.53;;;5.53;;
53694;SDS011;39588;51.124;7.190;2023-07-29T04:49:01;7.63;;;5.27;;
53694;SDS011;39588;51.124;7.190;2023-07-29T04:51:27;8.57;;;5.70;;
53694;SDS011;39588;51.124;7.190;2023-07-29T04:53:53;6.57;;;4.80;;
53694;SDS011;39588;51.124;7.190;2023-07-29T04:56:19;4.97;;;4.17;;
53694;SDS011;39588;51.124;7.190;2023-07-29T04:58:45;5.47;;;4.53;;
53694;SDS011;39588;51.124;7.190;2023-07-29T05:01:11;5.07;;;4.17;;
53694;SDS011;39588;51.124;7.190;2023-07-29T05:03:37;4.43;;;3.43;;
53694;SDS011;39588;51.124;7.190;2023-07-29T05:06:04;5.73;;;4.37;;
53694;SDS011;39588;51.124;7.190;2023-07-29T05:08:30;6.33;;;4.10;;
53694;SDS011;39588;51.124;7.190;2023-07-29T05:10:56;4.67;;;3.77;;
53694;SDS011;39588;51.124;7.190;2023-07-29T05:13:22;4.83;;;2.90;;
53694;SDS011;39588;51.124;7.190;2023-07-29T05:15:48;3.80;;;3.03;;
53694;SDS011;39588;51.124;7.190;2023-07-29T05:18:15;3.00;;;2.73;;
53694;SDS011;39588;51.124;7.190;2023-07-29T05:20:41;3.03;;;2.47;;
53694;SDS011;39588;51.124;7.190;2023-07-29T05:23:07;2.57;;;2.33;;
53694;SDS011;39588;51.124;7.190;2023-07-29T05:25:32;2.67;;;2.47;;
53694;SDS011;39588;51.124;7.190;2023-07-29T05:28:01;3.30;;;2.90;;
53694;SDS011;39588;51.124;7.190;2023-07-29T05:30:28;6.40;;;3.03;;
53694;SDS011;39588;51.124;7.190;2023-07-29T05:32:56;2.70;;;2.50;;
53694;SDS011;39588;51.124;7.190;2023-07-29T05:35:22;4.53;;;3.07;;
53694;SDS011;39588;51.124;7.190;2023-07-29T05:37:48;4.03;;;3.13;;
53694;SDS011;39588;51.124;7.190;2023-07-29T05:40:14;2.13;;;2.03;;
53694;SDS011;39588;51.124;7.190;2023-07-29T05:42:40;2.57;;;2.37;;
53694;SDS011;39588;51.124;7.190;2023-07-29T05:45:07;2.63;;;2.43;;
53694;SDS011;39588;51.124;7.190;2023-07-29T05:47:33;2.43;;;2.23;;
53694;SDS011;39588;51.124;7.190;2023-07-29T05:49:58;2.40;;;2.20;;
53694;SDS011;39588;51.124;7.190;2023-07-29T05:52:29;4.60;;;3.17;;
53694;SDS011;39588;51.124;7.190;2023-07-29T05:54:57;3.13;;;2.77;;
53694;SDS011;39588;51.124;7.190;2023-07-29T05:57:23;3.03;;;2.77;;
53694;SDS011;39588;51.124;7.190;2023-07-29T05:59:49;3.60;;;3.00;;
53694;SDS011;39588;51.124;7.190;2023-07-29T06:02:15;2.50;;;2.30;;
53694;SDS011;39588;51.124;7.190;2023-07-29T06:04:40;2.60;;;2.40;;
53694;SDS011;39588;51.124;7.190;2023-07-29T06:07:06;2.40;;;2.20;;
53694;SDS011;39588;51.124;7.190;2023-07-29T06:09:31;3.00;;;2.60;;
53694;SDS011;39588;51.124;7.190;2023-07-29T06:11:57;3.23;;;2.93;;
53694;SDS011;39588;51.124;7.190;2023-07-29T06:14:23;3.17;;;2.73;;
53694;SDS011;39588;51.124;7.190;2023-07-29T06:16:49;2.90;;;2.60;;
53694;SDS011;39588;51.124;7.190;2023-07-29T06:19:15;3.57;;;2.23;;
53694;SDS011;39588;51.124;7.190;2023-07-29T06:21:40;6.70;;;2.90;;
53694;SDS011;39588;51.124;7.190;2023-07-29T06:24:06;3.47;;;2.77;;
53694;SDS011;39588;51.124;7.190;2023-07-29T06:26:31;2.30;;;2.10;;
53694;SDS011;39588;51.124;7.190;2023-07-29T06:28:57;1.97;;;1.80;;
53694;SDS011;39588;51.124;7.190;2023-07-29T06:31:23;2.20;;;2.00;;
53694;SDS011;39588;51.124;7.190;2023-07-29T06:33:49;4.63;;;2.47;;
53694;SDS011;39588;51.124;7.190;2023-07-29T06:36:14;1.93;;;1.83;;
53694;SDS011;39588;51.124;7.190;2023-07-29T06:38:40;4.50;;;2.00;;
53694;SDS011;39588;51.124;7.190;2023-07-29T06:41:06;2.43;;;2.03;;
53694;SDS011;39588;51.124;7.190;2023-07-29T06:43:32;1.90;;;1.80;;
53694;SDS011;39588;51.124;7.190;2023-07-29T06:45:58;2.80;;;2.60;;
53694;SDS011;39588;51.124;7.190;2023-07-29T06:48:23;2.53;;;1.80;;
53694;SDS011;39588;51.124;7.190;2023-07-29T06:50:49;1.53;;;1.13;;
53694;SDS011;39588;51.124;7.190;2023-07-29T06:53:15;1.23;;;1.20;;
53694;SDS011;39588;51.124;7.190;2023-07-29T06:55:41;1.03;;;0.93;;
53694;SDS011;39588;51.124;7.190;2023-07-29T06:58:08;1.00;;;1.00;;
53694;SDS011;39588;51.124;7.190;2023-07-29T07:00:33;0.80;;;0.80;;
53694;SDS011;39588;51.124;7.190;2023-07-29T07:02:59;1.23;;;1.20;;
53694;SDS011;39588;51.124;7.190;2023-07-29T07:05:25;0.83;;;0.83;;
53694;SDS011;39588;51.124;7.190;2023-07-29T07:07:51;0.93;;;0.93;;
53694;SDS011;39588;51.124;7.190;2023-07-29T07:10:17;0.67;;;0.67;;
53694;SDS011;39588;51.124;7.190;2023-07-29T07:12:42;1.00;;;1.00;;
53694;SDS011;39588;51.124;7.190;2023-07-29T07:15:08;0.80;;;0.80;;
53694;SDS011;39588;51.124;7.190;2023-07-29T07:17:34;3.90;;;1.07;;
53694;SDS011;39588;51.124;7.190;2023-07-29T07:19:59;1.50;;;1.40;;
53694;SDS011;39588;51.124;7.190;2023-07-29T07:22:25;1.33;;;1.23;;
53694;SDS011;39588;51.124;7.190;2023-07-29T07:24:51;1.00;;;1.00;;
53694;SDS011;39588;51.124;7.190;2023-07-29T07:27:17;1.10;;;0.90;;
53694;SDS011;39588;51.124;7.190;2023-07-29T07:29:42;0.87;;;0.87;;
53694;SDS011;39588;51.124;7.190;2023-07-29T07:32:08;2.67;;;1.03;;
53694;SDS011;39588;51.124;7.190;2023-07-29T07:34:33;1.17;;;1.17;;
53694;SDS011;39588;51.124;7.190;2023-07-29T07:36:59;0.83;;;0.83;;
53694;SDS011;39588;51.124;7.190;2023-07-29T07:39:25;0.77;;;0.77;;
53694;SDS011;39588;51.124;7.190;2023-07-29T07:41:51;1.57;;;1.27;;
53694;SDS011;39588;51.124;7.190;2023-07-29T07:44:17;1.07;;;0.93;;
53694;SDS011;39588;51.124;7.190;2023-07-29T07:46:44;1.70;;;1.50;;
53694;SDS011;39588;51.124;7.190;2023-07-29T07:49:10;11.83;;;2.00;;
53694;SDS011;39588;51.124;7.190;2023-07-29T07:51:37;0.80;;;0.80;;
53694;SDS011;39588;51.124;7.190;2023-07-29T07:54:03;10.87;;;1.40;;
53694;SDS011;39588;51.124;7.190;2023-07-29T07:56:29;0.87;;;0.87;;
53694;SDS011;39588;51.124;7.190;2023-07-29T07:58:54;1.00;;;1.00;;
53694;SDS011;39588;51.124;7.190;2023-07-29T08:01:20;1.00;;;1.00;;
53694;SDS011;39588;51.124;7.190;2023-07-29T08:03:46;1.43;;;0.83;;
53694;SDS011;39588;51.124;7.190;2023-07-29T08:06:12;0.97;;;0.97;;
53694;SDS011;39588;51.124;7.190;2023-07-29T08:08:37;0.80;;;0.80;;
53694;SDS011;39588;51.124;7.190;2023-07-29T08:11:03;0.70;;;0.70;;
53694;SDS011;39588;51.124;7.190;2023-07-29T08:13:29;0.83;;;0.83;;
53694;SDS011;39588;51.124;7.190;2023-07-29T08:15:54;1.13;;;0.80;;
53694;SDS011;39588;51.124;7.190;2023-07-29T08:18:20;7.60;;;0.90;;
53694;SDS011;39588;51.124;7.190;2023-07-29T08:20:53;0.70;;;0.70;;
53694;SDS011;39588;51.124;7.190;2023-07-29T08:23:20;0.90;;;0.90;;
53694;SDS011;39588;51.124;7.190;2023-07-29T08:25:59;4.20;;;1.23;;
53694;SDS011;39588;51.124;7.190;2023-07-29T08:28:37;0.97;;;0.97;;
53694;SDS011;39588;51.124;7.190;2023-07-29T08:31:04;1.40;;;1.30;;
53694;SDS011;39588;51.124;7.190;2023-07-29T08:33:31;1.10;;;1.00;;
53694;SDS011;39588;51.124;7.190;2023-07-29T08:35:58;0.93;;;0.93;;
53694;SDS011;39588;51.124;7.190;2023-07-29T08:38:24;1.97;;;1.00;;
53694;SDS011;39588;51.124;7.190;2023-07-29T08:44:01;1.10;;;1.10;;
53694;SDS011;39588;51.124;7.190;2023-07-29T08:46:33;1.50;;;1.00;;
53694;SDS011;39588;51.124;7.190;2023-07-29T08:48:59;1.27;;;0.90;;
53694;SDS011;39588;51.124;7.190;2023-07-29T08:51:26;1.03;;;1.00;;
53694;SDS011;39588;51.124;7.190;2023-07-29T08:53:52;2.00;;;0.90;;
53694;SDS011;39588;51.124;7.190;2023-07-29T08:56:18;3.50;;;1.10;;
53694;SDS011;39588;51.124;7.190;2023-07-29T08:58:44;1.10;;;1.00;;
53694;SDS011;39588;51.124;7.190;2023-07-29T09:01:10;1.33;;;1.23;;
53694;SDS011;39588;51.124;7.190;2023-07-29T09:03:37;0.77;;;0.77;;
53694;SDS011;39588;51.124;7.190;2023-07-29T09:06:03;0.70;;;0.63;;
53694;SDS011;39588;51.124;7.190;2023-07-29T09:08:28;1.17;;;0.90;;
53694;SDS011;39588;51.124;7.190;2023-07-29T09:10:54;1.60;;;1.50;;
53694;SDS011;39588;51.124;7.190;2023-07-29T09:13:20;5.00;;;1.57;;
53694;SDS011;39588;51.124;7.190;2023-07-29T09:15:46;2.83;;;1.40;;
53694;SDS011;39588;51.124;7.190;2023-07-29T09:18:16;1.33;;;1.10;;
53694;SDS011;39588;51.124;7.190;2023-07-29T09:20:45;2.40;;;0.80;;
53694;SDS011;39588;51.124;7.190;2023-07-29T09:23:12;1.47;;;1.37;;
53694;SDS011;39588;51.124;7.190;2023-07-29T09:25:38;0.90;;;0.90;;
53694;SDS011;39588;51.124;7.190;2023-07-29T09:28:09;0.90;;;0.90;;
53694;SDS011;39588;51.124;7.190;2023-07-29T09:30:36;1.77;;;0.97;;
53694;SDS011;39588;51.124;7.190;2023-07-29T09:33:05;0.60;;;0.60;;
53694;SDS011;39588;51.124;7.190;2023-07-29T09:35:35;1.10;;;0.70;;
53694;SDS011;39588;51.124;7.190;2023-07-29T09:38:02;3.10;;;1.00;;
53694;SDS011;39588;51.124;7.190;2023-07-29T09:40:38;2.47;;;1.00;;
53694;SDS011;39588;51.124;7.190;2023-07-29T09:43:05;0.60;;;0.60;;
53694;SDS011;39588;51.124;7.190;2023-07-29T09:45:34;0.63;;;0.63;;
53694;SDS011;39588;51.124;7.190;2023-07-29T09:48:01;0.77;;;0.77;;
53694;SDS011;39588;51.124;7.190;2023-07-29T09:50:28;0.60;;;0.60;;
53694;SDS011;39588;51.124;7.190;2023-07-29T09:52:54;0.93;;;0.83;;
53694;SDS011;39588;51.124;7.190;2023-07-29T09:55:21;0.93;;;0.60;;
53694;SDS011;39588;51.124;7.190;2023-07-29T09:57:52;0.60;;;0.60;;
53694;SDS011;39588;51.124;7.190;2023-07-29T10:00:18;0.67;;;0.67;;
53694;SDS011;39588;51.124;7.190;2023-07-29T10:02:44;0.80;;;0.80;;
53694;SDS011;39588;51.124;7.190;2023-07-29T10:05:11;0.87;;;0.87;;
53694;SDS011;39588;51.124;7.190;2023-07-29T10:07:36;0.97;;;0.70;;
53694;SDS011;39588;51.124;7.190;2023-07-29T10:10:03;0.87;;;0.87;;
53694;SDS011;39588;51.124;7.190;2023-07-29T10:12:30;1.00;;;1.00;;
53694;SDS011;39588;51.124;7.190;2023-07-29T10:15:00;0.73;;;0.73;;
53694;SDS011;39588;51.124;7.190;2023-07-29T10:17:28;1.17;;;0.83;;
53694;SDS011;39588;51.124;7.190;2023-07-29T10:19:55;3.33;;;1.70;;
53694;SDS011;39588;51.124;7.190;2023-07-29T10:22:24;1.90;;;0.87;;
53694;SDS011;39588;51.124;7.190;2023-07-29T10:24:53;1.03;;;1.00;;
53694;SDS011;39588;51.124;7.190;2023-07-29T10:27:24;1.00;;;0.97;;
53694;SDS011;39588;51.124;7.190;2023-07-29T10:29:52;2.30;;;1.20;;
53694;SDS011;39588;51.124;7.190;2023-07-29T10:32:22;0.87;;;0.80;;
53694;SDS011;39588;51.124;7.190;2023-07-29T10:34:51;0.87;;;0.87;;
53694;SDS011;39588;51.124;7.190;2023-07-29T10:37:17;1.03;;;1.03;;
53694;SDS011;39588;51.124;7.190;2023-07-29T10:39:51;4.43;;;0.80;;
53694;SDS011;39588;51.124;7.190;2023-07-29T10:42:21;0.77;;;0.77;;
53694;SDS011;39588;51.124;7.190;2023-07-29T10:49:55;1.13;;;0.63;;
53694;SDS011;39588;51.124;7.190;2023-07-29T10:52:55;0.60;;;0.60;;
53694;SDS011;39588;51.124;7.190;2023-07-29T10:58:05;0.70;;;0.70;;
53694;SDS011;39588;51.124;7.190;2023-07-29T11:00:31;0.70;;;0.70;;
53694;SDS011;39588;51.124;7.190;2023-07-29T11:03:02;1.93;;;0.80;;
53694;SDS011;39588;51.124;7.190;2023-07-29T11:05:49;0.60;;;0.60;;
53694;SDS011;39588;51.124;7.190;2023-07-29T11:08:17;2.63;;;1.00;;
53694;SDS011;39588;51.124;7.190;2023-07-29T11:10:44;0.80;;;0.80;;
53694;SDS011;39588;51.124;7.190;2023-07-29T11:13:10;0.77;;;0.77;;
53694;SDS011;39588;51.124;7.190;2023-07-29T11:15:37;2.47;;;1.00;;
53694;SDS011;39588;51.124;7.190;2023-07-29T11:18:04;0.93;;;0.93;;
53694;SDS011;39588;51.124;7.190;2023-07-29T11:20:32;1.00;;;1.00;;
53694;SDS011;39588;51.124;7.190;2023-07-29T11:22:59;0.90;;;0.90;;
53694;SDS011;39588;51.124;7.190;2023-07-29T11:25:29;0.83;;;0.83;;
53694;SDS011;39588;51.124;7.190;2023-07-29T11:28:02;0.87;;;0.87;;
53694;SDS011;39588;51.124;7.190;2023-07-29T11:30:27;3.80;;;1.10;;
53694;SDS011;39588;51.124;7.190;2023-07-29T11:32:54;1.10;;;1.00;;
53694;SDS011;39588;51.124;7.190;2023-07-29T11:35:21;0.80;;;0.80;;
53694;SDS011;39588;51.124;7.190;2023-07-29T11:37:48;1.40;;;1.13;;
53694;SDS011;39588;51.124;7.190;2023-07-29T11:40:15;0.60;;;0.60;;
53694;SDS011;39588;51.124;7.190;2023-07-29T11:42:45;6.70;;;1.07;;
53694;SDS011;39588;51.124;7.190;2023-07-29T11:45:12;0.80;;;0.80;;
53694;SDS011;39588;51.124;7.190;2023-07-29T11:47:38;2.30;;;0.90;;
53694;SDS011;39588;51.124;7.190;2023-07-29T11:50:04;0.80;;;0.80;;
53694;SDS011;39588;51.124;7.190;2023-07-29T11:52:35;1.17;;;0.80;;
53694;SDS011;39588;51.124;7.190;2023-07-29T11:55:02;2.20;;;1.00;;
53694;SDS011;39588;51.124;7.190;2023-07-29T11:57:33;0.87;;;0.87;;
53694;SDS011;39588;51.124;7.190;2023-07-29T12:00:08;0.77;;;0.77;;
53694;SDS011;39588;51.124;7.190;2023-07-29T12:02:41;0.80;;;0.80;;
53694;SDS011;39588;51.124;7.190;2023-07-29T12:05:11;0.90;;;0.90;;
53694;SDS011;39588;51.124;7.190;2023-07-29T12:07:38;1.07;;;0.50;;
53694;SDS011;39588;51.124;7.190;2023-07-29T12:10:05;2.00;;;1.00;;
53694;SDS011;39588;51.124;7.190;2023-07-29T12:12:31;1.00;;;1.00;;
53694;SDS011;39588;51.124;7.190;2023-07-29T12:14:57;0.73;;;0.60;;
53694;SDS011;39588;51.124;7.190;2023-07-29T12:17:23;1.60;;;1.17;;
53694;SDS011;39588;51.124;7.190;2023-07-29T12:19:48;1.07;;;0.97;;
53694;SDS011;39588;51.124;7.190;2023-07-29T12:22:19;4.00;;;1.07;;
53694;SDS011;39588;51.124;7.190;2023-07-29T12:24:45;1.57;;;1.20;;
53694;SDS011;39588;51.124;7.190;2023-07-29T12:27:12;5.80;;;1.10;;
53694;SDS011;39588;51.124;7.190;2023-07-29T12:29:42;1.80;;;0.80;;
53694;SDS011;39588;51.124;7.190;2023-07-29T12:32:08;1.07;;;1.07;;
53694;SDS011;39588;51.124;7.190;2023-07-29T12:34:35;6.30;;;1.73;;
53694;SDS011;39588;51.124;7.190;2023-07-29T12:37:02;1.53;;;1.43;;
53694;SDS011;39588;51.124;7.190;2023-07-29T12:39:31;1.00;;;1.00;;
53694;SDS011;39588;51.124;7.190;2023-07-29T12:41:58;0.90;;;0.83;;
53694;SDS011;39588;51.124;7.190;2023-07-29T12:44:25;1.10;;;1.00;;
53694;SDS011;39588;51.124;7.190;2023-07-29T12:46:52;1.07;;;1.00;;
53694;SDS011;39588;51.124;7.190;2023-07-29T12:49:18;1.20;;;1.20;;
53694;SDS011;39588;51.124;7.190;2023-07-29T12:51:44;1.43;;;1.00;;
53694;SDS011;39588;51.124;7.190;2023-07-29T12:54:10;1.17;;;0.80;;
53694;SDS011;39588;51.124;7.190;2023-07-29T12:56:36;1.83;;;1.10;;
53694;SDS011;39588;51.124;7.190;2023-07-29T12:59:02;1.27;;;1.13;;
53694;SDS011;39588;51.124;7.190;2023-07-29T13:01:28;2.77;;;1.27;;
53694;SDS011;39588;51.124;7.190;2023-07-29T13:03:54;1.60;;;1.07;;
53694;SDS011;39588;51.124;7.190;2023-07-29T13:06:21;0.90;;;0.90;;
53694;SDS011;39588;51.124;7.190;2023-07-29T13:08:47;0.80;;;0.80;;
53694;SDS011;39588;51.124;7.190;2023-07-29T13:11:13;0.83;;;0.80;;
53694;SDS011;39588;51.124;7.190;2023-07-29T13:13:39;1.27;;;1.17;;
53694;SDS011;39588;51.124;7.190;2023-07-29T13:16:05;1.17;;;1.10;;
53694;SDS011;39588;51.124;7.190;2023-07-29T13:18:32;1.53;;;0.90;;
53694;SDS011;39588;51.124;7.190;2023-07-29T13:20:58;3.77;;;1.00;;
53694;SDS011;39588;51.124;7.190;2023-07-29T13:23:25;2.10;;;1.43;;
53694;SDS011;39588;51.124;7.190;2023-07-29T13:25:51;0.70;;;0.70;;
53694;SDS011;39588;51.124;7.190;2023-07-29T13:28:16;0.80;;;0.80;;
53694;SDS011;39588;51.124;7.190;2023-07-29T13:30:42;0.93;;;0.93;;
53694;SDS011;39588;51.124;7.190;2023-07-29T13:33:08;1.63;;;1.17;;
53694;SDS011;39588;51.124;7.190;2023-07-29T13:35:34;0.90;;;0.90;;
53694;SDS011;39588;51.124;7.190;2023-07-29T13:38:00;1.47;;;0.97;;
53694;SDS011;39588;51.124;7.190;2023-07-29T13:40:26;0.90;;;0.90;;
53694;SDS011;39588;51.124;7.190;2023-07-29T13:42:52;1.20;;;0.87;;
53694;SDS011;39588;51.124;7.190;2023-07-29T13:45:18;0.97;;;0.80;;
53694;SDS011;39588;51.124;7.190;2023-07-29T13:47:44;0.70;;;0.70;;
53694;SDS011;39588;51.124;7.190;2023-07-29T13:50:10;1.33;;;1.07;;
53694;SDS011;39588;51.124;7.190;2023-07-29T13:52:36;0.80;;;0.80;;
53694;SDS011;39588;51.124;7.190;2023-07-29T13:55:03;5.70;;;1.27;;
53694;SDS011;39588;51.124;7.190;2023-07-29T13:57:29;0.80;;;0.80;;
53694;SDS011;39588;51.124;7.190;2023-07-29T13:59:55;2.33;;;1.07;;
53694;SDS011;39588;51.124;7.190;2023-07-29T14:02:21;1.40;;;1.03;;
53694;SDS011;39588;51.124;7.190;2023-07-29T14:04:47;0.93;;;0.93;;
53694;SDS011;39588;51.124;7.190;2023-07-29T14:07:13;1.23;;;0.80;;
53694;SDS011;39588;51.124;7.190;2023-07-29T14:09:39;0.70;;;0.70;;
53694;SDS011;39588;51.124;7.190;2023-07-29T14:12:05;0.90;;;0.90;;
53694;SDS011;39588;51.124;7.190;2023-07-29T14:14:31;0.77;;;0.77;;
53694;SDS011;39588;51.124;7.190;2023-07-29T14:16:57;2.13;;;1.30;;
53694;SDS011;39588;51.124;7.190;2023-07-29T14:19:23;0.70;;;0.70;;
53694;SDS011;39588;51.124;7.190;2023-07-29T14:21:49;0.70;;;0.70;;
53694;SDS011;39588;51.124;7.190;2023-07-29T14:24:15;1.30;;;1.20;;
53694;SDS011;39588;51.124;7.190;2023-07-29T14:26:42;1.53;;;1.43;;
53694;SDS011;39588;51.124;7.190;2023-07-29T14:29:08;5.97;;;1.30;;
53694;SDS011;39588;51.124;7.190;2023-07-29T14:31:34;0.80;;;0.80;;
53694;SDS011;39588;51.124;7.190;2023-07-29T14:34:00;1.13;;;1.13;;
53694;SDS011;39588;51.124;7.190;2023-07-29T14:36:25;1.03;;;1.03;;
53694;SDS011;39588;51.124;7.190;2023-07-29T14:38:51;1.00;;;1.00;;
53694;SDS011;39588;51.124;7.190;2023-07-29T14:41:17;2.63;;;0.80;;
53694;SDS011;39588;51.124;7.190;2023-07-29T14:43:42;4.07;;;1.20;;
53694;SDS011;39588;51.124;7.190;2023-07-29T14:46:08;1.47;;;0.90;;
53694;SDS011;39588;51.124;7.190;2023-07-29T14:48:34;0.90;;;0.90;;
53694;SDS011;39588;51.124;7.190;2023-07-29T14:51:00;0.63;;;0.63;;
53694;SDS011;39588;51.124;7.190;2023-07-29T14:53:26;1.00;;;1.00;;
53694;SDS011;39588;51.124;7.190;2023-07-29T14:55:51;1.30;;;0.93;;
53694;SDS011;39588;51.124;7.190;2023-07-29T14:58:17;1.33;;;1.23;;
53694;SDS011;39588;51.124;7.190;2023-07-29T15:00:43;2.67;;;1.10;;
53694;SDS011;39588;51.124;7.190;2023-07-29T15:03:09;0.80;;;0.80;;